Time;durP1;ratioP1;P1;durP2;ratioP2;P2;SDS_P1;SDS_P2;PMS_P1;PMS_P2;Temp;Humidity;BMP_temperature;BMP_pressure;BME280_temperature;BME280_humidity;BME280_pressure;Samples;Min_cycle;Max_cycle;Signal;HPM_P1;HPM_P2
2021/09/02 00:00:52;;;;;;;9.15;7.47;;;;;;;17.57;71.61;101861.28;5060137;28;20107;-53
2021/09/02 00:03:18;;;;;;;8.07;7.28;;;;;;;17.56;71.68;101857.75;5058046;28;20086;-53
2021/09/02 00:05:46;;;;;;;8.38;7.47;;;;;;;17.55;71.62;101855.13;5062533;28;20029;-52
2021/09/02 00:08:11;;;;;;;8.52;7.72;;;;;;;17.56;71.81;101862.19;5056775;28;20017;-53
2021/09/02 00:10:36;;;;;;;8.55;7.65;;;;;;;17.56;71.64;101856.88;5057427;28;20024;-52
2021/09/02 00:13:45;;;;;;;9.05;8.15;;;;;;;17.54;71.81;101859.56;5045343;28;20840;-52
2021/09/02 00:16:11;;;;;;;8.70;7.30;;;;;;;17.54;71.68;101854.22;5058652;28;20503;-52
2021/09/02 00:18:48;;;;;;;10.13;7.78;;;;;;;17.53;71.68;101851.59;5055463;28;20043;-52
2021/09/02 00:21:13;;;;;;;7.45;6.70;;;;;;;17.54;71.81;101853.38;5042641;28;20509;-52
2021/09/02 00:23:43;;;;;;;8.43;7.45;;;;;;;17.53;71.67;101852.47;5059315;28;20028;-53
2021/09/02 00:26:09;;;;;;;9.43;7.47;;;;;;;17.52;71.85;101855.16;5041301;28;20076;-54
2021/09/02 00:29:27;;;;;;;9.30;7.78;;;;;;;17.51;71.68;101851.63;5055727;28;20078;-52
2021/09/02 00:31:52;;;;;;;9.27;8.38;;;;;;;17.51;71.60;101859.63;5058817;28;20050;-52
2021/09/02 00:34:20;;;;;;;9.20;8.35;;;;;;;17.51;71.62;101856.09;5038245;28;20192;-53
2021/09/02 00:36:45;;;;;;;10.15;8.63;;;;;;;17.51;71.84;101861.44;5062385;28;20090;-53
2021/09/02 00:39:11;;;;;;;10.02;8.45;;;;;;;17.49;71.70;101855.22;5058385;28;20028;-53
2021/09/02 00:41:36;;;;;;;9.23;8.23;;;;;;;17.49;71.74;101855.22;5061662;28;20085;-52
2021/09/02 00:44:01;;;;;;;9.00;7.97;;;;;;;17.50;71.63;101865.00;5059989;28;20499;-52
2021/09/02 00:46:27;;;;;;;9.25;7.85;;;;;;;17.50;71.84;101862.34;5062679;28;20024;-53
2021/09/02 00:48:52;;;;;;;9.23;8.32;;;;;;;17.49;71.71;101866.78;5061899;28;20020;-53
2021/09/02 00:51:19;;;;;;;8.63;7.78;;;;;;;17.48;71.61;101865.03;5058739;28;20056;-53
2021/09/02 00:53:53;;;;;;;8.60;7.60;;;;;;;17.47;71.61;101868.59;5062421;28;20031;-52
2021/09/02 00:56:18;;;;;;;8.45;7.55;;;;;;;17.47;71.63;101863.25;5058995;28;20141;-53
2021/09/02 00:58:50;;;;;;;8.57;7.78;;;;;;;17.47;71.52;101865.06;5063858;28;20047;-52
2021/09/02 01:01:17;;;;;;;7.93;7.20;;;;;;;17.46;71.47;101861.50;5062520;28;20029;-52
2021/09/02 01:03:43;;;;;;;8.70;7.25;;;;;;;17.46;71.55;101866.84;5063766;28;20162;-53
2021/09/02 01:06:12;;;;;;;8.10;7.40;;;;;;;17.44;71.53;101868.69;5063087;28;20029;-53
2021/09/02 01:08:37;;;;;;;8.38;7.55;;;;;;;17.45;71.63;101867.75;5059427;28;20091;-53
2021/09/02 01:11:02;;;;;;;8.82;8.02;;;;;;;17.43;71.41;101859.78;5040770;28;20024;-53
2021/09/02 01:13:29;;;;;;;8.52;7.45;;;;;;;17.42;71.42;101863.38;5049508;28;20020;-52
2021/09/02 01:16:00;;;;;;;9.07;8.18;;;;;;;17.42;71.55;101859.81;5063288;28;20485;-52
2021/09/02 01:18:26;;;;;;;10.93;8.15;;;;;;;17.42;71.44;101859.81;5059746;28;20470;-52
2021/09/02 01:20:51;;;;;;;8.20;7.38;;;;;;;17.42;71.42;101860.69;5060882;28;20039;-53
2021/09/02 01:23:23;;;;;;;8.32;7.32;;;;;;;17.42;71.52;101865.16;5061334;28;20035;-53
2021/09/02 01:25:48;;;;;;;7.85;7.10;;;;;;;17.41;71.50;101864.25;5044709;28;20024;-52
2021/09/02 01:28:14;;;;;;;8.95;8.05;;;;;;;17.41;71.33;101860.72;5065153;28;20032;-52
2021/09/02 01:30:40;;;;;;;7.70;6.90;;;;;;;17.41;71.36;101868.72;5046803;28;20107;-52
2021/09/02 01:33:12;;;;;;;8.55;7.65;;;;;;;17.39;71.25;101859.88;5060727;28;20370;-53
2021/09/02 01:35:38;;;;;;;9.40;7.18;;;;;;;17.39;71.41;101866.09;5043051;28;20514;-52
2021/09/02 01:38:05;;;;;;;8.13;7.35;;;;;;;17.40;71.38;101869.59;5059672;28;20078;-52
2021/09/02 01:40:42;;;;;;;8.45;7.63;;;;;;;17.38;71.35;101863.44;5060271;28;20032;-53
2021/09/02 01:43:09;;;;;;;8.05;7.35;;;;;;;17.38;71.40;101871.44;5060086;28;20056;-52
2021/09/02 01:45:36;;;;;;;8.40;7.47;;;;;;;17.38;71.41;101871.44;5059498;28;20036;-53
2021/09/02 01:48:02;;;;;;;9.07;8.05;;;;;;;17.37;71.42;101883.03;5043037;28;20021;-53
2021/09/02 01:50:34;;;;;;;8.10;7.30;;;;;;;17.36;71.27;101883.91;5060318;28;20028;-53
2021/09/02 01:53:05;;;;;;;8.57;6.93;;;;;;;17.36;71.37;101882.13;5060170;28;20432;-52
2021/09/02 01:55:30;;;;;;;8.18;6.78;;;;;;;17.35;71.49;101875.06;5057599;28;20019;-53
2021/09/02 01:57:56;;;;;;;9.30;7.10;;;;;;;17.34;71.31;101872.41;5046529;28;20461;-50
2021/09/02 02:00:27;;;;;;;8.27;7.13;;;;;;;17.34;71.14;101872.41;5058414;28;20028;-51
2021/09/02 02:02:59;;;;;;;9.68;7.05;;;;;;;17.33;71.34;101886.66;5061046;28;20482;-51
2021/09/02 02:05:25;;;;;;;8.63;7.80;;;;;;;17.34;71.52;101880.41;5060702;28;20524;-51
2021/09/02 02:07:50;;;;;;;8.40;7.38;;;;;;;17.33;71.36;101878.66;5061618;28;20025;-51
2021/09/02 02:10:22;;;;;;;8.95;7.57;;;;;;;17.31;71.38;101887.53;5045172;28;20056;-51
2021/09/02 02:12:59;;;;;;;8.85;7.55;;;;;;;17.30;71.36;101888.47;5059344;28;20036;-51
2021/09/02 02:15:28;;;;;;;7.53;6.82;;;;;;;17.29;71.47;101891.16;5060358;28;20437;-52
2021/09/02 02:17:54;;;;;;;8.98;6.63;;;;;;;17.28;71.35;101887.59;5060409;28;20034;-52
2021/09/02 02:20:20;;;;;;;8.13;7.28;;;;;;;17.29;71.43;101888.47;5058883;28;20021;-52
2021/09/02 02:22:46;;;;;;;8.73;7.15;;;;;;;17.27;71.44;101880.50;5057970;28;20070;-52
2021/09/02 02:25:17;;;;;;;7.43;6.65;;;;;;;17.26;71.42;101881.44;5056627;28;20112;-52
2021/09/02 02:27:43;;;;;;;8.10;7.30;;;;;;;17.27;71.51;101885.84;5058100;28;20029;-52
2021/09/02 02:30:12;;;;;;;7.47;6.78;;;;;;;17.27;71.31;101887.66;5060341;28;20368;-52
2021/09/02 02:32:41;;;;;;;7.97;7.15;;;;;;;17.26;71.43;101886.75;5058508;28;20029;-52
2021/09/02 02:35:10;;;;;;;7.93;6.90;;;;;;;17.25;71.28;101882.34;5059900;28;20388;-52
2021/09/02 02:37:35;;;;;;;8.93;6.70;;;;;;;17.26;71.36;101892.09;5058616;28;20021;-52
2021/09/02 02:40:00;;;;;;;7.55;6.60;;;;;;;17.25;71.38;101892.13;5058432;28;20032;-52
2021/09/02 02:42:26;;;;;;;7.03;6.32;;;;;;;17.24;71.44;101882.38;5051309;28;20016;-50
2021/09/02 02:44:51;;;;;;;8.27;7.45;;;;;;;17.21;71.48;101883.31;5061518;28;20040;-50
2021/09/02 02:47:16;;;;;;;8.02;7.10;;;;;;;17.24;71.48;101891.22;5061053;28;20048;-50
2021/09/02 02:49:42;;;;;;;7.57;6.72;;;;;;;17.23;71.43;101886.81;5027715;28;20013;-50
2021/09/02 02:52:08;;;;;;;7.45;6.75;;;;;;;17.23;71.31;101880.59;5059853;28;20036;-50
2021/09/02 02:54:34;;;;;;;7.95;6.53;;;;;;;17.21;71.43;101872.63;5057917;28;20023;-50
2021/09/02 02:57:00;;;;;;;7.63;6.85;;;;;;;17.22;71.43;101873.50;5042039;28;20492;-50
2021/09/02 02:59:25;;;;;;;7.80;6.95;;;;;;;17.22;71.35;101868.16;5057343;28;20032;-50
2021/09/02 03:01:51;;;;;;;8.05;7.13;;;;;;;17.22;71.30;101876.16;5061048;28;20032;-49
2021/09/02 03:04:16;;;;;;;8.02;7.22;;;;;;;17.22;71.58;101873.50;5057082;28;20032;-49
2021/09/02 03:10:05;;;;;;;9.15;7.20;;;;;;;17.20;71.38;101876.19;5058357;28;20755;-49
2021/09/02 03:12:34;;;;;;;7.78;6.72;;;;;;;17.20;71.47;101870.84;5060663;28;20106;-49
2021/09/02 03:15:00;;;;;;;8.65;6.78;;;;;;;17.20;71.31;101870.84;5079719;22;20047;-52
2021/09/02 03:17:25;;;;;;;7.10;6.35;;;;;;;17.19;71.52;101866.44;5085218;28;20024;-52
2021/09/02 03:19:51;;;;;;;9.05;6.90;;;;;;;17.18;71.38;101875.34;5084885;28;20028;-52
2021/09/02 03:22:16;;;;;;;7.43;6.72;;;;;;;17.18;71.63;101873.56;5085986;28;20027;-53
2021/09/02 03:24:42;;;;;;;7.28;6.57;;;;;;;17.18;71.46;101875.34;5085349;28;20035;-53
2021/09/02 03:27:10;;;;;;;7.70;6.90;;;;;;;17.17;71.40;101877.13;5059570;28;20024;-52
2021/09/02 03:29:38;;;;;;;8.00;7.22;;;;;;;17.17;71.23;101871.81;5079436;28;20024;-51
2021/09/02 03:32:04;;;;;;;7.75;6.97;;;;;;;17.16;71.41;101870.06;5080688;28;20054;-52
2021/09/02 03:34:29;;;;;;;7.85;7.05;;;;;;;17.17;71.34;101876.25;5078836;28;20035;-53
2021/09/02 03:36:55;;;;;;;7.50;6.80;;;;;;;17.16;71.44;101879.81;5061601;28;20032;-54
2021/09/02 03:39:20;;;;;;;7.57;6.88;;;;;;;17.16;71.51;101879.81;5076384;28;20108;-52
2021/09/02 03:41:45;;;;;;;7.20;6.55;;;;;;;17.16;71.40;101879.81;5076604;28;20108;-54
2021/09/02 03:44:11;;;;;;;8.73;7.88;;;;;;;17.15;71.40;101883.41;5077267;28;20012;-54
2021/09/02 03:47:10;;;;;;;7.38;6.57;;;;;;;17.13;71.53;101885.19;5080400;28;20033;-53
2021/09/02 03:49:35;;;;;;;9.68;7.00;;;;;;;17.13;71.29;101879.88;5077293;28;20032;-53
2021/09/02 03:52:04;;;;;;;9.15;6.65;;;;;;;17.13;71.44;101885.19;5060640;28;20042;-52
2021/09/02 03:54:30;;;;;;;7.20;6.50;;;;;;;17.13;71.56;101882.53;5076542;28;20052;-52
2021/09/02 03:56:55;;;;;;;8.73;7.57;;;;;;;17.11;71.48;101877.22;5080515;28;20066;-52
2021/09/02 03:59:20;;;;;;;8.30;6.85;;;;;;;17.11;71.39;101876.38;5075450;28;20035;-53
2021/09/02 04:01:46;;;;;;;7.90;6.82;;;;;;;17.10;71.44;101874.63;5067109;28;20769;-52
2021/09/02 04:04:11;;;;;;;7.50;6.85;;;;;;;17.09;71.52;101878.16;5074215;28;20057;-52
2021/09/02 04:06:36;;;;;;;7.40;6.70;;;;;;;17.09;71.54;101878.16;5074836;28;20031;-52
2021/09/02 04:09:01;;;;;;;7.80;7.00;;;;;;;17.09;71.58;101878.16;5076493;28;21415;-53
2021/09/02 04:11:27;;;;;;;7.70;6.93;;;;;;;17.07;71.60;101885.31;5070430;28;20036;-52
2021/09/02 04:13:55;;;;;;;7.82;7.03;;;;;;;17.08;71.62;101889.75;5077790;28;20053;-53
2021/09/02 04:16:20;;;;;;;7.68;6.88;;;;;;;17.06;71.70;101881.78;5080848;28;20064;-53
2021/09/02 04:18:48;;;;;;;6.60;5.88;;;;;;;17.05;71.63;101883.53;5083000;28;20067;-51
2021/09/02 04:21:14;;;;;;;6.28;5.70;;;;;;;17.05;71.62;101882.66;5085401;28;20115;-52
2021/09/02 04:23:39;;;;;;;7.97;7.18;;;;;;;17.04;71.62;101881.75;5082754;28;20031;-52
2021/09/02 04:26:06;;;;;;;6.68;6.07;;;;;;;17.03;71.56;101882.66;5083384;28;20450;-51
2021/09/02 04:28:34;;;;;;;8.57;7.00;;;;;;;17.04;71.63;101886.22;5079277;28;20481;-53
2021/09/02 04:30:59;;;;;;;7.30;6.57;;;;;;;17.02;71.77;101883.59;5085370;28;20366;-53
2021/09/02 04:36:46;;;;;;;8.13;7.25;;;;;;;17.01;71.63;101887.13;5081533;28;20043;-53
2021/09/02 04:39:11;;;;;;;7.63;6.57;;;;;;;17.01;71.53;101892.47;5081155;28;20036;-54
2021/09/02 04:41:40;;;;;;;7.53;6.82;;;;;;;17.01;71.66;101900.47;5078266;28;20043;-53
2021/09/02 04:44:05;;;;;;;7.75;6.10;;;;;;;17.00;71.60;101897.81;5085888;28;20051;-54
2021/09/02 04:46:33;;;;;;;6.93;6.30;;;;;;;16.99;71.62;101888.06;5080331;28;20063;-54
2021/09/02 04:48:58;;;;;;;6.90;6.22;;;;;;;16.98;71.64;101892.53;5080481;28;20031;-54
2021/09/02 04:51:24;;;;;;;6.40;5.78;;;;;;;16.97;71.53;101888.09;5081726;28;20505;-54
2021/09/02 04:53:49;;;;;;;7.95;6.47;;;;;;;16.98;71.62;101896.97;5083807;28;20039;-54
2021/09/02 04:56:14;;;;;;;7.10;6.47;;;;;;;16.95;71.62;101892.59;5083121;28;20028;-54
2021/09/02 04:58:40;;;;;;;7.60;6.90;;;;;;;16.96;71.67;101897.00;5081857;28;20086;-52
2021/09/02 05:01:05;;;;;;;9.60;7.25;;;;;;;16.96;71.65;101893.44;5081706;28;20066;-53
2021/09/02 05:03:31;;;;;;;8.07;6.68;;;;;;;16.96;71.47;101898.78;5080234;28;20023;-53
2021/09/02 05:05:56;;;;;;;6.32;5.72;;;;;;;16.96;71.61;101898.78;5083031;28;20048;-52
2021/09/02 05:08:22;;;;;;;8.82;6.95;;;;;;;16.95;71.43;101899.69;5078917;28;20539;-52
2021/09/02 05:10:50;;;;;;;6.70;5.95;;;;;;;16.95;71.43;101899.69;5081465;28;20038;-54
2021/09/02 05:13:16;;;;;;;8.85;6.20;;;;;;;16.94;71.64;101906.78;5084014;28;20035;-54
2021/09/02 05:15:44;;;;;;;6.50;5.90;;;;;;;16.92;71.47;101898.84;5079746;28;20020;-54
2021/09/02 05:18:09;;;;;;;7.07;5.95;;;;;;;16.93;71.43;101907.69;5066709;28;20392;-54
2021/09/02 05:20:41;;;;;;;7.05;6.45;;;;;;;16.92;71.40;101909.50;5082304;28;20115;-54
2021/09/02 05:23:06;;;;;;;8.65;6.72;;;;;;;16.90;71.87;101911.31;5080431;28;20035;-54
2021/09/02 05:25:31;;;;;;;7.55;6.53;;;;;;;16.90;71.72;101905.09;5077102;28;20406;-55
2021/09/02 05:27:57;;;;;;;9.73;6.07;;;;;;;16.90;71.69;101905.09;5081001;28;20020;-54
2021/09/02 05:30:22;;;;;;;6.90;6.30;;;;;;;16.89;71.68;101903.34;5080398;28;20048;-54
2021/09/02 05:32:47;;;;;;;7.05;6.35;;;;;;;16.89;71.54;101908.66;5079912;28;20031;-54
2021/09/02 05:35:16;;;;;;;6.65;6.05;;;;;;;16.88;71.64;101906.91;5080576;28;20062;-54
2021/09/02 05:37:41;;;;;;;6.57;5.97;;;;;;;16.87;71.49;101903.34;5080474;28;20032;-54
2021/09/02 05:40:10;;;;;;;7.18;6.57;;;;;;;16.87;71.64;101911.34;5076876;28;20020;-54
2021/09/02 05:42:36;;;;;;;7.03;6.28;;;;;;;16.88;71.64;101904.25;5080625;28;20044;-54
2021/09/02 05:45:05;;;;;;;7.18;6.47;;;;;;;16.86;71.71;101914.03;5081857;28;20126;-54
2021/09/02 05:47:31;;;;;;;6.85;6.20;;;;;;;16.85;71.69;101912.28;5079686;28;20078;-54
2021/09/02 05:49:56;;;;;;;7.53;6.63;;;;;;;16.87;71.70;101916.69;5077850;28;20033;-54
2021/09/02 05:52:21;;;;;;;7.13;6.43;;;;;;;16.86;71.65;101919.38;5082123;28;20028;-54
2021/09/02 05:54:53;;;;;;;7.72;6.93;;;;;;;16.84;71.60;101911.38;5083000;28;20055;-54
2021/09/02 05:57:20;;;;;;;7.88;7.15;;;;;;;16.85;71.65;101909.63;5080805;28;20028;-54
2021/09/02 05:59:46;;;;;;;7.15;6.45;;;;;;;16.86;71.72;101908.69;5082341;28;20085;-54
2021/09/02 06:02:11;;;;;;;7.18;6.20;;;;;;;16.85;71.78;101909.63;5079289;28;20112;-54
2021/09/02 06:04:39;;;;;;;7.28;6.32;;;;;;;16.84;71.76;101911.38;5080401;28;20028;-54
2021/09/02 06:07:05;;;;;;;7.50;6.32;;;;;;;16.85;71.70;101912.28;5079715;28;20020;-54
2021/09/02 06:09:30;;;;;;;7.13;6.43;;;;;;;16.84;71.63;101913.19;5085680;28;20031;-54
2021/09/02 06:11:55;;;;;;;6.70;6.05;;;;;;;16.84;71.56;101911.38;5070687;28;20482;-53
2021/09/02 06:14:20;;;;;;;7.85;6.55;;;;;;;16.82;71.62;101907.00;5084091;28;20138;-53
2021/09/02 06:16:46;;;;;;;6.82;6.05;;;;;;;16.84;71.70;101915.84;5077065;28;20069;-54
2021/09/02 06:19:11;;;;;;;7.85;6.60;;;;;;;16.83;71.74;101914.97;5080003;28;20101;-54
2021/09/02 06:21:40;;;;;;;7.45;6.75;;;;;;;16.83;71.80;101914.06;5078182;28;20027;-54
2021/09/02 06:24:14;;;;;;;7.85;7.05;;;;;;;16.82;71.82;101918.53;5076574;28;20054;-54
2021/09/02 06:26:40;;;;;;;7.07;6.40;;;;;;;16.81;71.68;101932.78;5078825;28;20035;-54
2021/09/02 06:29:05;;;;;;;7.07;6.25;;;;;;;16.82;71.69;101930.97;5077981;28;20393;-54
2021/09/02 06:31:30;;;;;;;7.30;6.20;;;;;;;16.80;71.76;101934.56;5076399;28;20044;-54
2021/09/02 06:33:56;;;;;;;7.13;6.47;;;;;;;16.80;71.82;101926.56;5079134;28;20036;-54
2021/09/02 06:36:21;;;;;;;7.53;6.82;;;;;;;16.80;71.63;101931.00;5077832;28;20482;-54
2021/09/02 06:38:46;;;;;;;8.25;6.97;;;;;;;16.83;71.89;101930.06;5082375;28;21332;-54
2021/09/02 06:41:12;;;;;;;7.38;6.68;;;;;;;16.82;71.78;101936.31;5077384;28;20490;-54
2021/09/02 06:43:37;;;;;;;8.38;7.00;;;;;;;16.80;71.52;101937.22;5060929;28;20032;-54
2021/09/02 06:46:05;;;;;;;6.93;6.22;;;;;;;16.81;71.79;101938.09;5077732;28;20020;-54
2021/09/02 06:48:33;;;;;;;7.28;6.57;;;;;;;16.80;71.84;101942.53;5075192;28;20078;-54
2021/09/02 06:50:59;;;;;;;9.00;7.00;;;;;;;16.80;71.67;101936.31;5076336;28;20020;-54
2021/09/02 06:53:24;;;;;;;7.25;6.47;;;;;;;16.82;71.80;101949.63;5080608;28;20024;-54
2021/09/02 06:55:49;;;;;;;8.20;7.28;;;;;;;16.80;71.78;101942.53;5078249;28;20373;-54
2021/09/02 06:58:18;;;;;;;8.25;7.45;;;;;;;16.82;71.86;101944.28;5079907;28;20051;-53
2021/09/02 07:00:43;;;;;;;7.35;6.63;;;;;;;16.79;71.76;101946.13;5083612;28;20182;-54
2021/09/02 07:03:08;;;;;;;7.72;6.93;;;;;;;16.79;71.95;101948.78;5082301;28;20520;-54
2021/09/02 07:06:14;;;;;;;8.40;6.75;;;;;;;16.79;71.76;101946.13;5080015;28;20025;-54
2021/09/02 07:08:40;;;;;;;7.40;6.65;;;;;;;16.76;71.96;101951.47;5077200;28;20013;-54
2021/09/02 07:11:05;;;;;;;7.13;6.43;;;;;;;16.79;71.93;101951.44;5077195;28;20025;-54
2021/09/02 07:13:31;;;;;;;8.27;7.30;;;;;;;16.79;71.90;101956.78;5077132;28;20020;-53
2021/09/02 07:15:56;;;;;;;7.63;6.70;;;;;;;16.79;71.96;101959.44;5080961;28;20442;-53
2021/09/02 07:18:56;;;;;;;8.07;7.20;;;;;;;16.79;72.19;101955.88;5068995;28;20025;-53
2021/09/02 07:21:22;;;;;;;7.63;6.70;;;;;;;16.77;72.37;101957.69;5077182;28;20037;-53
2021/09/02 07:23:47;;;;;;;7.32;5.82;;;;;;;16.77;72.02;101958.56;5078217;28;20416;-52
2021/09/02 07:26:13;;;;;;;8.73;7.13;;;;;;;16.76;71.99;101956.81;5048538;28;20031;-52
2021/09/02 07:28:39;;;;;;;7.93;6.93;;;;;;;16.75;72.31;101954.16;5080893;28;20019;-54
2021/09/02 07:31:05;;;;;;;7.90;7.05;;;;;;;16.76;72.11;101962.13;5080027;28;20020;-54
2021/09/02 07:33:30;;;;;;;7.20;6.47;;;;;;;16.78;71.86;101970.97;5076030;28;20028;-53
2021/09/02 07:35:56;;;;;;;7.90;7.05;;;;;;;16.78;72.18;101968.31;5076344;28;20024;-54
2021/09/02 07:38:24;;;;;;;12.77;7.05;;;;;;;16.78;72.06;101957.66;5078192;28;20103;-54
2021/09/02 07:40:50;;;;;;;7.45;6.75;;;;;;;16.76;71.89;101970.13;5078564;28;20031;-54
2021/09/02 07:43:15;;;;;;;8.68;7.13;;;;;;;16.75;72.29;101967.50;5077612;28;20028;-54
2021/09/02 07:45:40;;;;;;;7.63;7.00;;;;;;;16.75;72.28;101971.03;5079588;28;20024;-54
2021/09/02 07:48:11;;;;;;;7.63;6.50;;;;;;;16.76;72.18;101972.78;5075686;28;20943;-54
2021/09/02 07:50:36;;;;;;;;;;;;;;;16.76;72.26;101983.47;5078857;28;20534;-54
2021/09/02 07:53:02;;;;;;;7.33;6.50;;;;;;;16.77;72.30;101982.53;5076698;28;19950;-54
2021/09/02 07:55:27;;;;;;;8.05;7.25;;;;;;;16.75;72.18;101987.03;5074807;28;20358;-52
2021/09/02 07:57:52;;;;;;;7.13;6.10;;;;;;;16.76;72.30;101983.47;5075374;28;20472;-54
2021/09/02 08:00:18;;;;;;;9.48;6.75;;;;;;;16.76;72.20;101987.88;5073308;28;20424;-54
2021/09/02 08:02:44;;;;;;;8.68;7.15;;;;;;;16.76;71.98;101990.56;5081058;28;20077;-51
2021/09/02 08:05:13;;;;;;;9.15;7.60;;;;;;;16.76;72.11;101996.78;5074943;28;20033;-52
2021/09/02 08:07:49;;;;;;;8.55;7.07;;;;;;;16.75;72.12;102005.69;5063119;28;20115;-52
2021/09/02 08:10:15;;;;;;;8.55;7.75;;;;;;;16.75;72.20;101996.78;5076180;28;20036;-53
2021/09/02 08:12:40;;;;;;;7.88;7.07;;;;;;;16.75;72.22;101995.03;5077387;28;20024;-53
2021/09/02 08:15:06;;;;;;;11.43;7.72;;;;;;;16.78;72.33;102002.94;5079985;28;20016;-51
2021/09/02 08:20:54;;;;;;;8.98;7.53;;;;;;;16.76;72.19;101994.09;5075488;28;20039;-54
2021/09/02 08:23:20;;;;;;;7.82;6.95;;;;;;;16.76;72.49;101990.56;5075710;28;20028;-53
2021/09/02 08:25:49;;;;;;;8.75;6.95;;;;;;;16.75;72.44;102000.34;5078386;28;20375;-53
2021/09/02 08:28:15;;;;;;;8.02;7.22;;;;;;;16.78;72.30;101996.75;5072282;28;20078;-53
2021/09/02 08:30:40;;;;;;;11.25;7.28;;;;;;;16.77;72.65;102003.84;5077631;28;20490;-53
2021/09/02 08:33:06;;;;;;;8.00;7.20;;;;;;;16.77;72.17;102008.28;5075406;28;20107;-52
2021/09/02 08:35:34;;;;;;;11.02;7.68;;;;;;;16.78;72.24;102008.28;5077902;28;20059;-52
2021/09/02 08:38:06;;;;;;;7.45;6.75;;;;;;;16.80;72.25;102010.91;5076905;28;20051;-51
2021/09/02 08:40:33;;;;;;;10.93;7.35;;;;;;;16.79;72.50;102010.06;5076921;28;20024;-53
2021/09/02 08:42:59;;;;;;;8.18;7.32;;;;;;;16.79;72.77;102006.50;5075522;28;20028;-52
2021/09/02 08:45:26;;;;;;;9.73;8.70;;;;;;;16.77;72.67;102005.63;5074174;28;20032;-53
2021/09/02 08:47:52;;;;;;;9.85;7.95;;;;;;;16.79;72.50;102006.50;5060952;28;20059;-51
2021/09/02 08:50:26;;;;;;;12.27;8.05;;;;;;;16.77;72.64;102006.53;5075772;28;20075;-52
2021/09/02 08:52:52;;;;;;;9.38;7.90;;;;;;;16.78;72.72;102002.94;5072383;28;20027;-52
2021/09/02 08:55:18;;;;;;;9.10;7.68;;;;;;;16.78;72.85;101997.63;5072911;28;20024;-52
2021/09/02 08:57:47;;;;;;;10.60;8.00;;;;;;;16.79;73.03;102004.72;5077229;28;20024;-52
2021/09/02 09:00:12;;;;;;;10.45;7.97;;;;;;;16.79;72.88;102007.41;5076388;28;20044;-52
2021/09/02 09:02:42;;;;;;;10.48;8.18;;;;;;;16.80;72.68;102005.59;5076851;28;20035;-52
2021/09/02 09:05:10;;;;;;;10.77;8.55;;;;;;;16.78;73.18;102008.28;5075658;28;20024;-53
2021/09/02 09:07:37;;;;;;;9.88;8.25;;;;;;;16.78;73.04;102008.28;5079971;28;20032;-54
2021/09/02 09:10:11;;;;;;;10.85;8.60;;;;;;;16.79;73.52;102004.72;5069848;28;20031;-54
2021/09/02 09:12:46;;;;;;;8.65;7.75;;;;;;;16.80;73.14;102010.91;5084095;28;20047;-54
2021/09/02 09:15:16;;;;;;;12.25;8.85;;;;;;;16.79;73.66;102015.38;5077802;28;20039;-54
2021/09/02 09:17:41;;;;;;;11.20;8.40;;;;;;;16.80;73.55;102017.13;5101929;22;20044;-51
2021/09/02 09:20:07;;;;;;;13.15;9.27;;;;;;;16.79;73.56;102007.41;5088220;28;20040;-52
2021/09/02 09:22:36;;;;;;;8.18;7.43;;;;;;;16.80;73.45;102010.91;5072819;28;20426;-51
2021/09/02 09:25:12;;;;;;;12.40;10.07;;;;;;;16.80;73.55;102006.47;5086982;28;20028;-51
2021/09/02 09:27:53;;;;;;;10.75;8.32;;;;;;;16.81;73.48;102007.38;5079665;28;20024;-52
2021/09/02 09:30:21;;;;;;;10.52;9.05;;;;;;;16.82;73.36;102000.25;5077335;28;20012;-52
2021/09/02 09:32:51;;;;;;;10.13;8.73;;;;;;;16.82;73.46;102002.91;5059174;28;20551;-51
2021/09/02 09:35:27;;;;;;;12.20;9.60;;;;;;;16.80;73.30;102000.25;5073594;28;20024;-51
2021/09/02 09:38:14;;;;;;;12.80;10.23;;;;;;;16.81;73.46;102002.03;5076128;28;20020;-51
2021/09/02 09:40:41;;;;;;;10.30;8.88;;;;;;;16.79;73.27;102004.72;5071560;28;20016;-51
2021/09/02 09:46:28;;;;;;;10.93;9.85;;;;;;;16.83;73.68;102004.66;5077972;28;20032;-51
2021/09/02 09:48:58;;;;;;;10.93;8.95;;;;;;;16.82;73.62;102008.22;5079960;28;20044;-51
2021/09/02 09:51:23;;;;;;;10.90;9.77;;;;;;;16.82;73.54;102008.22;5079721;28;20428;-51
2021/09/02 09:53:51;;;;;;;10.57;9.45;;;;;;;16.80;73.76;102009.16;5072671;28;20021;-51
2021/09/02 09:56:21;;;;;;;11.95;10.45;;;;;;;16.81;73.78;102007.38;5055105;28;20131;-52
2021/09/02 09:58:48;;;;;;;11.80;10.25;;;;;;;16.82;73.60;102014.47;5073958;28;20032;-51
2021/09/02 10:01:16;;;;;;;11.32;9.82;;;;;;;16.87;74.04;102017.06;5067967;28;20640;-53
2021/09/02 10:03:42;;;;;;;22.35;9.95;;;;;;;16.96;73.22;102014.25;5065610;28;20021;-50
2021/09/02 10:06:09;;;;;;;16.30;12.23;;;;;;;17.03;72.70;102021.25;5068751;28;20035;-51
2021/09/02 10:08:41;;;;;;;28.52;12.18;;;;;;;17.04;72.47;102020.34;5069982;28;20031;-50
2021/09/02 10:11:08;;;;;;;18.60;10.85;;;;;;;17.06;72.31;102020.34;5074901;28;20099;-51
2021/09/02 10:13:34;;;;;;;28.98;10.40;;;;;;;17.07;72.05;102021.25;5073760;28;20482;-50
2021/09/02 10:16:00;;;;;;;16.95;10.43;;;;;;;17.05;72.08;102027.47;5058503;28;20033;-51
2021/09/02 10:18:30;;;;;;;14.00;10.40;;;;;;;17.07;71.72;102023.91;5073166;28;20024;-51
2021/09/02 10:21:01;;;;;;;16.13;10.90;;;;;;;17.03;71.77;102013.25;5068623;28;20063;-50
2021/09/02 10:23:26;;;;;;;14.70;11.07;;;;;;;17.03;71.65;102012.38;5056509;28;20544;-50
2021/09/02 10:25:52;;;;;;;13.70;10.25;;;;;;;17.02;71.42;102016.84;5072625;28;20033;-51
2021/09/02 10:28:34;;;;;;;11.32;9.82;;;;;;;17.04;71.66;102012.34;5076248;28;20049;-51
2021/09/02 10:31:03;;;;;;;12.30;10.25;;;;;;;17.03;71.45;102012.38;5067093;28;20043;-50
2021/09/02 10:33:32;;;;;;;13.38;11.30;;;;;;;17.03;71.09;102005.28;5072475;28;20016;-51
2021/09/02 10:35:57;;;;;;;13.52;10.55;;;;;;;17.00;71.41;102007.97;5075318;28;20017;-51
2021/09/02 10:38:36;;;;;;;16.70;10.98;;;;;;;17.01;71.17;102015.06;5074649;28;20035;-51
2021/09/02 10:41:01;;;;;;;12.27;10.38;;;;;;;17.01;71.28;102015.06;5069771;28;20020;-50
2021/09/02 10:43:49;;;;;;;12.68;10.90;;;;;;;17.02;71.27;102014.19;5065867;28;20120;-49
2021/09/02 10:46:34;;;;;;;13.77;11.15;;;;;;;17.00;71.33;102005.31;5070772;28;20044;-50
2021/09/02 10:49:32;;;;;;;13.75;11.27;;;;;;;17.02;71.30;102008.84;5072616;28;20028;-49
2021/09/02 10:52:14;;;;;;;14.60;11.18;;;;;;;17.02;71.33;102010.63;5009087;28;20476;-49
2021/09/02 10:54:39;;;;;;;13.52;11.10;;;;;;;17.00;71.26;102007.97;5043504;28;20120;-49
2021/09/02 10:57:12;;;;;;;14.07;11.35;;;;;;;17.02;71.55;102008.84;5054530;28;20021;-49
2021/09/02 10:59:50;;;;;;;15.20;11.50;;;;;;;17.01;70.90;102015.06;5078646;28;20024;-48
2021/09/02 11:02:15;;;;;;;13.43;10.38;;;;;;;17.03;71.14;102017.69;5069619;28;20409;-49
2021/09/02 11:04:45;;;;;;;14.40;10.73;;;;;;;17.03;70.80;102017.69;5073242;28;20526;-49
2021/09/02 11:07:10;;;;;;;12.43;10.75;;;;;;;17.03;70.92;102015.94;5072720;28;20017;-49
2021/09/02 11:09:48;;;;;;;13.63;11.20;;;;;;;17.02;70.79;102011.50;5070829;28;20016;-49
2021/09/02 11:12:45;;;;;;;13.50;10.63;;;;;;;17.02;71.01;102016.84;5074147;28;20024;-49
2021/09/02 11:15:22;;;;;;;12.45;11.15;;;;;;;17.04;70.54;102015.03;5059067;28;20051;-49
2021/09/02 11:17:56;;;;;;;14.13;10.70;;;;;;;17.04;70.75;102014.16;5070819;28;20052;-49
2021/09/02 11:20:23;;;;;;;12.00;10.68;;;;;;;17.04;71.07;102008.81;5056465;28;20020;-49
2021/09/02 11:23:05;;;;;;;14.80;10.57;;;;;;;17.04;71.13;102009.69;5072296;28;20040;-49
2021/09/02 11:25:38;;;;;;;13.30;10.65;;;;;;;17.04;71.01;102004.34;5072095;28;20028;-49
2021/09/02 11:28:03;;;;;;;12.57;10.93;;;;;;;17.05;70.75;102003.47;5068814;28;20552;-50
2021/09/02 11:30:28;;;;;;;13.20;11.18;;;;;;;17.06;70.70;102007.03;5068857;28;20017;-50
2021/09/02 11:32:59;;;;;;;11.80;10.43;;;;;;;17.07;70.91;102013.25;5071900;28;20511;-49
2021/09/02 11:35:24;;;;;;;13.77;10.70;;;;;;;17.07;70.91;102006.13;5070949;28;20078;-49
2021/09/02 11:37:50;;;;;;;12.23;10.25;;;;;;;17.08;70.71;102004.34;5036825;28;20031;-49
2021/09/02 11:40:25;;;;;;;12.57;10.70;;;;;;;17.07;70.55;102000.78;5049802;28;20377;-50